메인 페이지
METAR-TAF:

METAR-TAF

공항 :

리스본 포르텔라 국제공항

리스본, 포르투갈

위도: 38-46N, 경도: 009-08W, 고도: 114m

현재 날씨관측

예보는 26분 전, 19:00시(UTC)에 발표되었습니다.
북북서14kt
온도 22°C
습도 65%
기압 1019 hPa
시정 10km 이상
1500m 미만 상공 구름 및 적란운 없음

METAR: LPPT 201900Z 33014KT CAVOK 22/15 Q1019

시각: 20:26 (19:26 UTC)

예보

예보는 2 시간 26분 전, 17:00시(UTC)에 발표되었습니다.
예보 대상 시간: 20일 18시부터 21일 24시까지 (UTC)
북북서15kt
시정 10km 이상
1500m 미만 상공 구름 및 적란운 없음
전환 중
21일 00시부터 21일 02시까지 (UTC)
10kt
시정 10km 이상
고도 1200ft 상공 구름 보통
확률 30% :
일시적
21일 03시부터 21일 08시까지 (UTC)
고도 1200ft 상공 구름 많음
전환 중
21일 09시부터 21일 11시까지 (UTC)
시정 10km 이상
1500m 미만 상공 구름 및 적란운 없음
전환 중
21일 15시부터 21일 17시까지 (UTC)
북북서15kt
전환 중
21일 22시부터 21일 24시까지 (UTC)
10kt
시정 10km 이상
고도 1200ft 상공 구름 보통

TAF: LPPT 201700Z 2018/2124 33015KT CAVOK BECMG 2100/2102 36010KT 9999 SCT012 PROB30 TEMPO 2103/2108 BKN012 BECMG 2109/2111 CAVOK BECMG 2115/2117 33015KT BECMG 2122/2124 36010KT 9999 SCT012

4,000개 이상의 공항 관측 자료 및 예보 (METAR 및 TAF 보고).

지도상에서 검색 가능한 기상관측소가 노란 점과 빨간 점으로 표시되어 있습니다.

기상관측소 명을 보려면 표시 위로 마우스를 이동하세요.

날씨 관측과 예보를 보려면 클릭하세요.

지도 변경 : 확대하려면 엑스 표시가 있는 녹색 버튼, 축소하려면 빼기 표시가 있는 녹색 버튼, 다음 페이지의 지도를 보려면 녹색 화살표를 클릭하세요.


METAR-TAF: